Newport Beach, CA (92661)

1:59 PM PDT on August 25, 2016 (GMT -0700)
Beacon Bay | | Change Station

Elev 7 ft 33.61 °N, 117.90 °W | Updated 1 minute ago

Partly Cloudy
Partly Cloudy
73.9 °F
Feels Like 75 °F
N
7.3
Wind Variable Wind from WSW

Today
High -- | Low -- °F
--% Chance of Precip.
Yesterday
High -- | Low -- °F
Precip. -- in
Pressure 29.92 in
Visibility 10.0 miles
Clouds Few 30000 ft
Heat Index 75 °F
Dew Point 66 °F
Humidity 77%
Rainfall 0.00 in
Snow Depth Not available.
6:21 AM 7:25 PM
Last Quarter, 42% visible
METAR KSNA 252053Z 22014G19KT 10SM FEW300 23/16 A2993 RMK AO2 SLP132 T02330156 56013
Pressure 29.92 in
Visibility 10.0 miles
Clouds Few 30000 ft
Heat Index 75 °F
Dew Point 66 °F
Humidity 77%
Rainfall 0.00 in
Snow Depth Not available.
6:21 AM 7:25 PM
Last Quarter, 42% visible
METAR KSNA 252053Z 22014G19KT 10SM FEW300 23/16 A2993 RMK AO2 SLP132 T02330156 56013
A tropical disturbance pushing toward the Bahamas, is expected to develop into a tropical depression or storm, and will likely target Florida and the Gulf Coast this weekend into next week.

Right now, the disturbance remains a broad area of low pressure pushing through the Dominican Republic and Haiti, headed toward the southeast Bahamas. Rainfall totals over 3 inches (with locally higher amounts) are expected in HispaƱiola, particularly over elevated terrain.

10-Day Weather Forecast

Almanac

Astronomy

Aug. 25, 2016 Rise Set
Actual Time
Civil Twilight
Nautical Twilight
Astronomical Twilight
Moon
Length of Visible Light
Length of Day
Tomorrow will be .
, % of the Moon is Illuminated

Today's Extremes

State Highs State Lows

Community

WunderPhotos

Upload Photos

1,934,931 photos uploaded!

WunderBlog® & News

Nearby

Air Quality

  Air Quality AQ Index Pollutant
Not available.

Snow Depth

Station Depth Elevation

Earthquake Activity

City Distance Mag. Time & Date
Minimum magnitude displayed is 2.5.

Coastal Water Temperatures

Place Temperature

Stations

Nearby Weather Stations

Station Location Temp. Windchill Dew Point Humidity Wind Precip. Elev Updated Type
                   

Watches & Warnings

There are currently no watches in effect.